createdAt,value
2022-12-04T00:00:48.843Z,56.80
2022-12-04T00:05:51.802Z,64.33
2022-12-04T00:10:56.084Z,69.03
2022-12-04T00:15:59.343Z,62.63
2022-12-04T00:21:04.692Z,56.97
2022-12-04T00:26:11.543Z,67.87
2022-12-04T00:31:17.648Z,60.37
2022-12-04T00:36:25.747Z,65.50
2022-12-04T00:41:32.236Z,63.60
2022-12-04T00:46:35.165Z,77.47
2022-12-04T00:51:38.206Z,68.23
2022-12-04T00:56:42.538Z,74.27
2022-12-04T01:01:45.568Z,73.57
2022-12-04T01:06:48.569Z,74.93
2022-12-04T01:11:52.887Z,63.13
2022-12-04T01:16:55.867Z,72.13
2022-12-04T01:21:58.868Z,67.97
2022-12-04T01:27:03.366Z,65.13
2022-12-04T01:32:06.825Z,68.23
2022-12-04T01:37:09.885Z,70.47
2022-12-04T01:42:16.374Z,69.47
2022-12-04T01:47:19.317Z,68.53
2022-12-04T01:52:24.652Z,77.73
2022-12-04T01:57:33.085Z,67.63
2022-12-04T02:02:38.872Z,71.80
2022-12-04T02:07:44.238Z,75.60
2022-12-04T02:12:58.345Z,79.47
2022-12-04T02:18:07.201Z,77.60
2022-12-04T02:23:57.985Z,72.17
2022-12-04T02:29:08.258Z,68.90
2022-12-04T02:34:15.950Z,86.90
2022-12-04T02:39:23.139Z,83.17
2022-12-04T02:44:31.870Z,74.13
2022-12-04T02:49:39.989Z,82.90
2022-12-04T02:54:47.524Z,75.10
2022-12-04T02:59:54.853Z,72.10
2022-12-04T03:05:04.199Z,72.27
2022-12-04T03:10:13.239Z,64.87
2022-12-04T03:15:21.080Z,69.97
2022-12-04T03:20:25.356Z,68.87
2022-12-04T03:25:34.377Z,75.93
2022-12-04T03:30:45.324Z,78.73
2022-12-04T03:35:53.836Z,65.00
2022-12-04T03:41:04.461Z,81.70
2022-12-04T03:46:13.784Z,71.73
2022-12-04T03:51:19.488Z,63.97
2022-12-04T03:56:25.786Z,72.83
2022-12-04T04:01:36.294Z,67.30
2022-12-04T04:06:43.828Z,67.83
2022-12-04T04:11:50.963Z,75.60
2022-12-04T04:17:16.507Z,68.70
2022-12-04T04:22:39.787Z,80.73
2022-12-04T04:27:43.172Z,71.03
2022-12-04T04:32:54.260Z,66.43
2022-12-04T04:38:02.774Z,76.53
2022-12-04T04:43:10.862Z,70.90
2022-12-04T04:48:18.114Z,71.83
2022-12-04T04:53:26.840Z,67.27
2022-12-04T04:58:29.754Z,73.33
2022-12-04T05:03:34.954Z,68.30
2022-12-04T05:08:37.902Z,72.80
2022-12-04T05:13:41.122Z,81.80
2022-12-04T05:19:05.657Z,72.57
2022-12-04T05:24:09.501Z,76.80
2022-12-04T05:29:12.420Z,74.40
2022-12-04T05:34:16.680Z,62.23
2022-12-04T05:39:19.549Z,71.23
2022-12-04T05:44:22.428Z,72.97
2022-12-04T05:49:26.876Z,71.50
2022-12-04T05:54:29.801Z,75.30
2022-12-04T05:59:32.941Z,74.47
2022-12-04T06:04:38.476Z,72.10
2022-12-04T06:09:41.443Z,78.90
2022-12-04T06:14:44.353Z,73.33
2022-12-04T06:19:48.764Z,72.70
2022-12-04T06:24:51.778Z,72.03
2022-12-04T06:29:54.868Z,71.33
2022-12-04T06:34:59.226Z,73.33
2022-12-04T06:40:02.170Z,74.73
2022-12-04T06:45:06.533Z,67.60
2022-12-04T06:50:11.650Z,77.03
2022-12-04T06:55:14.543Z,63.20
2022-12-04T07:00:18.212Z,67.03
2022-12-04T07:05:22.462Z,72.43
2022-12-04T07:10:25.353Z,72.83
2022-12-04T07:15:28.336Z,64.60
2022-12-04T07:20:33.034Z,73.07
2022-12-04T07:25:40.367Z,77.43
2022-12-04T07:30:43.526Z,69.07
2022-12-04T07:35:56.468Z,67.13
2022-12-04T07:41:00.475Z,73.37
2022-12-04T07:46:07.417Z,74.47
2022-12-04T07:51:13.619Z,75.83
2022-12-04T07:56:17.706Z,77.67
2022-12-04T08:01:22.509Z,71.63
2022-12-04T08:06:29.257Z,79.77
2022-12-04T08:11:32.238Z,75.27
2022-12-04T08:16:35.259Z,82.17
2022-12-04T08:21:39.588Z,78.20
2022-12-04T08:26:42.496Z,78.73
2022-12-04T08:31:45.440Z,95.23
2022-12-04T08:36:49.684Z,168.60
2022-12-04T08:41:56.927Z,75.13
2022-12-04T08:47:00.282Z,81.00
2022-12-04T08:52:04.775Z,82.37
2022-12-04T08:57:07.978Z,83.17
2022-12-04T09:02:11.648Z,78.60
2022-12-04T09:07:15.942Z,84.10
2022-12-04T09:12:19.148Z,88.00
2022-12-04T09:17:22.039Z,87.47
2022-12-04T09:22:26.311Z,87.37
2022-12-04T09:27:29.607Z,79.00
2022-12-04T09:32:32.547Z,94.83
2022-12-04T09:37:38.589Z,78.97
2022-12-04T09:42:47.024Z,75.97
2022-12-04T09:47:53.420Z,74.07
2022-12-04T09:53:02.315Z,84.07
2022-12-04T09:58:08.635Z,91.40
2022-12-04T10:03:16.726Z,88.90
2022-12-04T10:08:23.950Z,87.40
2022-12-04T10:13:46.114Z,92.33
2022-12-04T10:18:54.897Z,98.27
2022-12-04T10:24:12.729Z,85.00
2022-12-04T10:29:21.110Z,85.63
2022-12-04T10:34:26.923Z,76.37
2022-12-04T10:39:37.201Z,86.10
2022-12-04T10:44:40.314Z,84.50
2022-12-04T10:49:43.441Z,82.03
2022-12-04T10:54:51.115Z,75.43
2022-12-04T10:59:56.260Z,68.60
2022-12-04T11:05:01.726Z,69.17
2022-12-04T11:10:08.759Z,71.93
2022-12-04T11:15:15.863Z,72.20
2022-12-04T11:20:21.098Z,65.97
2022-12-04T11:25:28.335Z,68.23
2022-12-04T11:30:35.378Z,70.70
2022-12-04T11:35:38.479Z,83.60
2022-12-04T11:40:48.106Z,68.27
2022-12-04T11:45:59.325Z,72.47
2022-12-04T11:51:11.299Z,73.43
2022-12-04T11:56:24.676Z,64.30
2022-12-04T12:01:41.484Z,74.70
2022-12-04T12:06:57.779Z,65.57
2022-12-04T12:12:07.168Z,68.43
2022-12-04T12:17:17.188Z,63.23
2022-12-04T12:22:35.513Z,71.83
2022-12-04T12:27:59.435Z,70.20
2022-12-04T12:33:11.041Z,70.50
2022-12-04T12:38:18.489Z,80.77
2022-12-04T12:43:30.293Z,78.43
2022-12-04T12:48:41.254Z,68.47
2022-12-04T12:53:48.942Z,70.73
2022-12-04T12:58:57.425Z,68.73
2022-12-04T13:04:10.790Z,58.83
2022-12-04T13:09:21.446Z,58.63
2022-12-04T13:14:25.857Z,57.73
2022-12-04T13:19:33.579Z,52.60
2022-12-04T13:24:57.810Z,66.43
2022-12-04T13:30:11.676Z,53.07
2022-12-04T13:35:25.687Z,51.33
2022-12-04T13:40:41.581Z,48.70
2022-12-04T13:45:48.092Z,45.50
2022-12-04T13:51:16.516Z,53.43
2022-12-04T13:56:27.713Z,48.23
2022-12-04T14:01:39.450Z,42.33
2022-12-04T14:06:46.450Z,46.73
2022-12-04T14:11:54.324Z,45.97
2022-12-04T14:17:00.757Z,46.70
2022-12-04T14:22:04.248Z,49.67
2022-12-04T14:27:33.709Z,46.17
2022-12-04T14:32:38.186Z,49.80
2022-12-04T14:37:50.778Z,44.30
2022-12-04T14:42:54.891Z,44.27
2022-12-04T14:48:18.847Z,41.60
2022-12-04T14:53:35.045Z,44.93
2022-12-04T14:58:39.941Z,43.23
2022-12-04T15:03:47.425Z,39.90
2022-12-04T15:08:52.124Z,51.87
2022-12-04T15:13:55.163Z,44.37
2022-12-04T15:19:00.962Z,49.10
2022-12-04T15:24:09.488Z,58.70
2022-12-04T15:29:21.267Z,50.30
2022-12-04T15:34:34.492Z,58.57
2022-12-04T15:39:38.350Z,41.77
2022-12-04T15:44:50.861Z,48.57
2022-12-04T15:49:55.824Z,46.27
2022-12-04T15:55:02.034Z,43.53
2022-12-04T16:00:07.382Z,43.07
2022-12-04T16:05:27.533Z,48.57
2022-12-04T16:10:33.691Z,41.57
2022-12-04T16:15:39.460Z,40.63
2022-12-04T16:20:43.812Z,39.30
2022-12-04T16:25:52.295Z,39.40
2022-12-04T16:30:56.511Z,67.73
2022-12-04T16:36:00.868Z,37.77
2022-12-04T16:41:05.882Z,39.80
2022-12-04T16:46:14.244Z,40.20
2022-12-04T16:51:21.555Z,44.93
2022-12-04T16:56:24.504Z,50.50
2022-12-04T17:01:36.311Z,42.30
2022-12-04T17:06:41.016Z,41.07
2022-12-04T17:11:44.397Z,44.30
2022-12-04T17:16:47.429Z,34.90
2022-12-04T17:21:53.413Z,32.70
2022-12-04T17:26:56.410Z,31.37
2022-12-04T17:31:59.411Z,34.67
2022-12-04T17:37:03.727Z,32.87
2022-12-04T17:42:06.751Z,34.30
2022-12-04T17:47:09.755Z,33.53
2022-12-04T17:52:14.115Z,32.10
2022-12-04T17:57:17.328Z,30.80
2022-12-04T18:02:20.208Z,32.50
2022-12-04T18:07:24.548Z,30.03
2022-12-04T18:12:27.548Z,31.57
2022-12-04T18:17:30.473Z,29.63
2022-12-04T18:22:34.826Z,30.27
2022-12-04T18:27:41.661Z,29.97
2022-12-04T18:32:45.257Z,27.47
2022-12-04T18:37:49.647Z,34.10
2022-12-04T18:42:52.908Z,29.90
2022-12-04T18:47:56.296Z,37.97
2022-12-04T18:53:02.030Z,32.13
2022-12-04T18:58:05.507Z,30.57
2022-12-04T19:03:08.450Z,26.50
2022-12-04T19:08:12.914Z,28.13
2022-12-04T19:13:15.888Z,31.70
2022-12-04T19:18:19.275Z,24.80
2022-12-04T19:23:23.747Z,29.20
2022-12-04T19:28:28.537Z,22.20
2022-12-04T19:33:31.582Z,26.17
2022-12-04T19:38:36.300Z,26.63
2022-12-04T19:43:40.301Z,25.87
2022-12-04T19:48:46.048Z,26.23
2022-12-04T19:53:50.711Z,25.67
2022-12-04T19:58:54.936Z,25.97
2022-12-04T20:03:58.797Z,28.00
2022-12-04T20:09:04.974Z,24.57
2022-12-04T20:14:09.045Z,25.80
2022-12-04T20:19:15.711Z,24.50
2022-12-04T20:24:20.041Z,23.33
2022-12-04T20:29:22.943Z,28.60
2022-12-04T20:34:25.840Z,26.07
2022-12-04T20:39:30.405Z,29.17
2022-12-04T20:44:33.333Z,26.60
2022-12-04T20:49:36.299Z,24.97
2022-12-04T20:54:41.788Z,23.17
2022-12-04T20:59:44.804Z,26.57
2022-12-04T21:04:47.768Z,23.10
2022-12-04T21:09:52.104Z,25.07
2022-12-04T21:15:12.257Z,27.53
2022-12-04T21:20:15.533Z,25.47
2022-12-04T21:25:19.765Z,23.60
2022-12-04T21:30:22.651Z,25.80
2022-12-04T21:35:25.569Z,26.13
2022-12-04T21:40:29.835Z,25.20
2022-12-04T21:45:32.748Z,23.07
2022-12-04T21:50:35.829Z,24.00
2022-12-04T21:55:40.155Z,24.43
2022-12-04T22:00:43.086Z,25.63
2022-12-04T22:05:46.260Z,25.47
2022-12-04T22:10:50.512Z,23.53
2022-12-04T22:15:53.539Z,21.30
2022-12-04T22:20:56.556Z,21.27
2022-12-04T22:26:07.100Z,17.70
2022-12-04T22:31:12.221Z,18.40
2022-12-04T22:36:17.076Z,21.37
2022-12-04T22:41:24.377Z,17.67
2022-12-04T22:46:27.515Z,15.10
2022-12-04T22:51:30.476Z,16.17
2022-12-04T22:56:35.208Z,15.40
2022-12-04T23:01:38.152Z,20.27
2022-12-04T23:06:41.086Z,20.33
2022-12-04T23:11:45.957Z,20.53
2022-12-04T23:16:49.811Z,21.20
2022-12-04T23:21:56.898Z,23.27
2022-12-04T23:27:01.600Z,26.80
2022-12-04T23:32:04.737Z,25.63
2022-12-04T23:37:07.748Z,26.80
2022-12-04T23:42:12.059Z,27.73
2022-12-04T23:47:15.072Z,28.60
2022-12-04T23:52:18.064Z,28.17
2022-12-04T23:57:22.403Z,27.87
